Main page
METAR-TAF:

METAR-TAF

Airports :

Roi Et Airport

Roi Et, Thailand

latitude: 16-07-00N, longitude: 103-46-26E, elevation: 138 m

Current weather observation

The report was made 6 hours and 47 minutes ago, at 14:00 UTC
Wind 4 kt from the Northeast
Temperature 24°C
Humidity 69%
Pressure 1014 hPa
Visibility: 9000 m

METAR: VTUV 151400Z 05004KT 9000 NSC 24/18 Q1014 NOSIG

Time: 03:47 (20:47 UTC)

Forecast

The report was made 3 hours and 47 minutes ago, at 17:00 UTC
Forecast valid from 15 at 18 UTC to 16 at 18 UTC
Wind 5 kt from the East/Northeast
Visibility: 9000 m
Becoming
from 15 at 22 UTC to 15 at 24 UTC
Visibility: 4000 m
mist
Becoming
from 16 at 01 UTC to 16 at 03 UTC
Visibility: 8000 m

TAF: VTUV 151700Z 1518/1618 07005KT 9000 NSC BECMG 1522/1524 4000 BR BECMG 1601/1603 8000 NSW

Weather observations and forecasts of more than 4000 airports (METAR and TAF reports).

The available stations are represented by yellow and red dots on the map.

Hover mouse over dot to see the name of the station.

Then click to see weather observations and forecasts.

To change the map : click on the green buttons with a black cross to zoom in, on the green button with a dash to zoom out, or on the green arrows for adjacent maps.


METAR-TAF: